Time;durP1;ratioP1;P1;durP2;ratioP2;P2;SDS_P1;SDS_P2;PMS_P1;PMS_P2;Temp;Humidity;BMP_temperature;BMP_pressure;BME280_temperature;BME280_humidity;BME280_pressure;Samples;Min_cycle;Max_cycle;Signal;HPM_P1;HPM_P2
2021/03/22 00:01:05;;;;;;;11.73;5.40;;;;;;;;;;5060649;28;20307;-62
2021/03/22 00:03:31;;;;;;;19.20;5.50;;;;;;;;;;5063915;28;20180;-63
2021/03/22 00:05:58;;;;;;;13.47;5.43;;;;;;;;;;5038740;28;20180;-62
2021/03/22 00:08:25;;;;;;;14.43;4.70;;;;;;;;;;5045003;28;20204;-61
2021/03/22 00:10:51;;;;;;;15.57;5.37;;;;;;;;;;5059098;28;20185;-62
2021/03/22 00:13:20;;;;;;;16.63;5.07;;;;;;;;;;5047427;28;20255;-62
2021/03/22 00:15:47;;;;;;;14.60;3.83;;;;;;;;;;5048404;28;20628;-62
2021/03/22 00:18:21;;;;;;;10.57;4.40;;;;;;;;;;5051206;28;20181;-62
2021/03/22 00:20:47;;;;;;;10.60;3.87;;;;;;;;;;5048975;28;20188;-62
2021/03/22 00:23:13;;;;;;;14.37;3.97;;;;;;;;;;5034425;28;20189;-62
2021/03/22 00:25:39;;;;;;;14.17;4.30;;;;;;;;;;5066620;28;20191;-62
2021/03/22 00:28:06;;;;;;;12.37;4.00;;;;;;;;;;5066372;28;20260;-61
2021/03/22 00:30:33;;;;;;;10.30;4.00;;;;;;;;;;5035343;28;20234;-63
2021/03/22 00:32:59;;;;;;;9.10;3.50;;;;;;;;;;5052856;28;20172;-62
2021/03/22 00:35:26;;;;;;;12.43;3.70;;;;;;;;;;5070808;28;20181;-62
2021/03/22 00:37:52;;;;;;;7.03;3.00;;;;;;;;;;5052672;28;20606;-62
2021/03/22 00:40:19;;;;;;;10.87;4.23;;;;;;;;;;5063149;28;20176;-62
2021/03/22 00:42:45;;;;;;;11.23;3.33;;;;;;;;;;5060883;28;20675;-61
2021/03/22 00:45:11;;;;;;;9.97;3.40;;;;;;;;;;5062133;28;20172;-62
2021/03/22 00:47:37;;;;;;;12.43;4.30;;;;;;;;;;5064738;28;20724;-62
2021/03/22 00:50:04;;;;;;;10.67;3.87;;;;;;;;;;5056031;28;20238;-62
2021/03/22 00:52:30;;;;;;;9.53;3.43;;;;;;;;;;5049963;28;20192;-62
2021/03/22 00:54:56;;;;;;;10.97;4.07;;;;;;;;;;5053697;28;20188;-62
2021/03/22 00:57:22;;;;;;;11.43;3.20;;;;;;;;;;5043747;28;20200;-61
2021/03/22 00:59:48;;;;;;;10.93;3.57;;;;;;;;;;5048397;28;20196;-62
2021/03/22 01:02:14;;;;;;;9.23;3.40;;;;;;;;;;5051698;28;20220;-61
2021/03/22 01:04:40;;;;;;;13.27;4.10;;;;;;;;;;5057417;28;20184;-62
2021/03/22 01:07:06;;;;;;;9.63;4.03;;;;;;;;;;5068429;28;20898;-61
2021/03/22 01:09:33;;;;;;;10.50;3.33;;;;;;;;;;5056035;28;20176;-62
2021/03/22 01:11:59;;;;;;;8.53;3.97;;;;;;;;;;5036033;28;20268;-61
2021/03/22 01:14:25;;;;;;;11.27;3.70;;;;;;;;;;5036780;28;20184;-61
2021/03/22 01:16:51;;;;;;;9.90;3.40;;;;;;;;;;5048279;28;20291;-62
2021/03/22 01:19:20;;;;;;;9.23;3.60;;;;;;;;;;5051901;28;20574;-62
2021/03/22 01:21:48;;;;;;;14.07;4.23;;;;;;;;;;5051433;28;20307;-61
2021/03/22 01:24:14;;;;;;;8.97;2.97;;;;;;;;;;5053750;28;20176;-61
2021/03/22 01:26:41;;;;;;;8.77;2.93;;;;;;;;;;5040761;28;20247;-61
2021/03/22 01:29:12;;;;;;;9.73;3.33;;;;;;;;;;5049566;28;20180;-61
2021/03/22 01:31:38;;;;;;;9.53;3.10;;;;;;;;;;5064834;28;20178;-62
2021/03/22 01:34:05;;;;;;;10.03;3.00;;;;;;;;;;5033049;28;20236;-62
2021/03/22 01:36:32;;;;;;;10.00;3.53;;;;;;;;;;5054823;28;20717;-61
2021/03/22 01:39:04;;;;;;;12.63;3.40;;;;;;;;;;5026935;28;20229;-62
2021/03/22 01:41:48;;;;;;;8.37;3.00;;;;;;;;;;5037156;28;20209;-61
2021/03/22 01:44:33;;;;;;;11.47;3.33;;;;;;;;;;5064928;28;20647;-61
2021/03/22 01:47:02;;;;;;;9.63;3.17;;;;;;;;;;5070413;28;20814;-61
2021/03/22 01:49:30;;;;;;;15.50;4.00;;;;;;;;;;5061355;28;20200;-61
2021/03/22 01:51:57;;;;;;;13.77;3.80;;;;;;;;;;5070414;28;20187;-61
2021/03/22 01:54:23;;;;;;;7.13;2.40;;;;;;;;;;5035289;28;20180;-64
2021/03/22 01:56:49;;;;;;;12.17;3.60;;;;;;;;;;5028387;28;20178;-62
2021/03/22 01:59:17;;;;;;;8.47;2.77;;;;;;;;;;5051068;28;20284;-62
2021/03/22 02:01:45;;;;;;;11.13;3.07;;;;;;;;;;5070456;28;20208;-64
2021/03/22 02:04:11;;;;;;;7.50;2.83;;;;;;;;;;5054103;28;20553;-62
2021/03/22 02:06:37;;;;;;;8.37;2.70;;;;;;;;;;5061932;28;20177;-62
2021/03/22 02:09:04;;;;;;;10.37;3.10;;;;;;;;;;5051117;28;20645;-62
2021/03/22 02:11:31;;;;;;;12.47;3.03;;;;;;;;;;5049429;28;20227;-62
2021/03/22 02:13:59;;;;;;;10.63;3.33;;;;;;;;;;5031495;28;20184;-62
2021/03/22 02:16:24;;;;;;;11.17;2.63;;;;;;;;;;5030521;28;20178;-62
2021/03/22 02:19:11;;;;;;;4.90;2.30;;;;;;;;;;5045175;28;21016;-61
2021/03/22 02:21:43;;;;;;;10.80;2.60;;;;;;;;;;5037061;28;20259;-62
2021/03/22 02:24:29;;;;;;;9.30;2.80;;;;;;;;;;5031363;28;20259;-62
2021/03/22 02:27:14;;;;;;;14.77;3.20;;;;;;;;;;5049121;28;20209;-62
2021/03/22 02:29:58;;;;;;;8.27;2.97;;;;;;;;;;5036255;28;20257;-61
2021/03/22 02:32:41;;;;;;;6.33;2.47;;;;;;;;;;5033262;28;20781;-62
2021/03/22 02:35:15;;;;;;;6.37;3.23;;;;;;;;;;5060895;28;20639;-62
2021/03/22 02:37:49;;;;;;;6.77;3.13;;;;;;;;;;5061539;28;20235;-62
2021/03/22 02:40:24;;;;;;;9.73;3.10;;;;;;;;;;5066613;28;20210;-62
2021/03/22 02:42:50;;;;;;;8.37;2.83;;;;;;;;;;5060334;28;20279;-62
2021/03/22 02:45:21;;;;;;;9.50;3.07;;;;;;;;;;5071607;28;20540;-62
2021/03/22 02:47:48;;;;;;;9.27;2.50;;;;;;;;;;5065549;28;20184;-62
2021/03/22 02:50:19;;;;;;;9.87;2.60;;;;;;;;;;5043948;28;20247;-62
2021/03/22 02:52:48;;;;;;;10.80;3.33;;;;;;;;;;5042150;28;20534;-62
2021/03/22 02:55:21;;;;;;;8.20;3.23;;;;;;;;;;5062504;28;20634;-62
2021/03/22 02:57:53;;;;;;;6.93;2.67;;;;;;;;;;5048116;28;20172;-62
2021/03/22 03:00:28;;;;;;;11.40;3.47;;;;;;;;;;5045372;28;20196;-62
2021/03/22 03:02:56;;;;;;;10.93;3.03;;;;;;;;;;5026631;28;20242;-62
2021/03/22 03:05:23;;;;;;;6.97;2.53;;;;;;;;;;5064539;28;20206;-62
2021/03/22 03:07:49;;;;;;;12.80;3.17;;;;;;;;;;5058217;28;20635;-62
2021/03/22 03:10:17;;;;;;;5.43;2.33;;;;;;;;;;5054657;28;20204;-63
2021/03/22 03:12:43;;;;;;;11.30;2.97;;;;;;;;;;5058717;28;20230;-62
2021/03/22 03:15:10;;;;;;;8.80;2.90;;;;;;;;;;5074349;28;20188;-62
2021/03/22 03:17:36;;;;;;;8.23;2.87;;;;;;;;;;5055676;28;20188;-63
2021/03/22 03:20:05;;;;;;;10.13;3.93;;;;;;;;;;5054841;28;20279;-62
2021/03/22 03:22:31;;;;;;;9.30;2.77;;;;;;;;;;5037667;28;20486;-63
2021/03/22 03:24:58;;;;;;;6.83;3.00;;;;;;;;;;5063158;28;20188;-62
2021/03/22 03:27:24;;;;;;;14.27;3.50;;;;;;;;;;5074863;28;20173;-63
2021/03/22 03:29:50;;;;;;;8.93;2.93;;;;;;;;;;5074061;28;20234;-63
2021/03/22 03:32:17;;;;;;;7.53;2.77;;;;;;;;;;5065591;28;20185;-62
2021/03/22 03:34:44;;;;;;;11.73;3.20;;;;;;;;;;5035199;28;20506;-62
2021/03/22 03:37:10;;;;;;;11.70;3.63;;;;;;;;;;5049192;28;20221;-62
2021/03/22 03:39:36;;;;;;;10.07;3.43;;;;;;;;;;5052937;28;20223;-62
2021/03/22 03:42:04;;;;;;;10.57;3.17;;;;;;;;;;5055166;28;20493;-63
2021/03/22 03:44:30;;;;;;;8.27;3.47;;;;;;;;;;5073786;28;20240;-62
2021/03/22 03:46:56;;;;;;;9.27;3.20;;;;;;;;;;5075504;28;20164;-62
2021/03/22 03:49:22;;;;;;;7.47;2.83;;;;;;;;;;5059240;28;20200;-63
2021/03/22 03:51:48;;;;;;;9.33;3.57;;;;;;;;;;5075468;28;20188;-63
2021/03/22 03:54:14;;;;;;;10.57;3.77;;;;;;;;;;5056625;28;20187;-62
2021/03/22 03:56:40;;;;;;;7.87;3.20;;;;;;;;;;5059191;28;20185;-63
2021/03/22 03:59:06;;;;;;;8.80;2.47;;;;;;;;;;5043043;28;20437;-63
2021/03/22 04:01:33;;;;;;;7.27;4.30;;;;;;;;;;5041545;28;20273;-63
2021/03/22 04:04:00;;;;;;;8.27;2.63;;;;;;;;;;5030284;28;20195;-63
2021/03/22 04:06:27;;;;;;;10.70;3.77;;;;;;;;;;5069997;28;20225;-62
2021/03/22 04:09:14;;;;;;;7.17;2.70;;;;;;;;;;5030269;28;20189;-62
2021/03/22 04:11:43;;;;;;;9.97;3.43;;;;;;;;;;5038418;28;20183;-62
2021/03/22 04:14:13;;;;;;;10.77;3.70;;;;;;;;;;5056464;28;20679;-62
2021/03/22 04:16:39;;;;;;;8.47;2.83;;;;;;;;;;5052475;28;20191;-63
2021/03/22 04:19:05;;;;;;;8.63;2.83;;;;;;;;;;5065348;28;20181;-62
2021/03/22 04:21:32;;;;;;;7.30;2.77;;;;;;;;;;5062984;28;20220;-62
2021/03/22 04:23:59;;;;;;;9.73;3.70;;;;;;;;;;5047698;28;20597;-62
2021/03/22 04:26:25;;;;;;;12.07;2.83;;;;;;;;;;5071355;28;20460;-62
2021/03/22 04:28:52;;;;;;;14.00;2.97;;;;;;;;;;5057102;28;20227;-62
2021/03/22 04:31:20;;;;;;;4.70;3.00;;;;;;;;;;5061233;28;20569;-62
2021/03/22 04:33:46;;;;;;;5.97;2.73;;;;;;;;;;5057985;28;20180;-62
2021/03/22 04:36:12;;;;;;;10.73;3.10;;;;;;;;;;5048729;28;20176;-64
2021/03/22 04:38:39;;;;;;;11.63;3.53;;;;;;;;;;5044134;28;20270;-65
2021/03/22 04:41:05;;;;;;;6.63;3.27;;;;;;;;;;5051794;28;20228;-63
2021/03/22 04:43:31;;;;;;;7.67;2.90;;;;;;;;;;5035724;28;20412;-63
2021/03/22 04:45:57;;;;;;;9.13;3.93;;;;;;;;;;5039387;28;20189;-62
2021/03/22 04:48:23;;;;;;;8.73;3.30;;;;;;;;;;5059158;28;20173;-61
2021/03/22 04:50:49;;;;;;;9.40;2.90;;;;;;;;;;5042115;28;21113;-62
2021/03/22 04:53:15;;;;;;;12.40;4.37;;;;;;;;;;5041617;28;20616;-62
2021/03/22 04:55:42;;;;;;;10.07;3.57;;;;;;;;;;5051750;28;20253;-62
2021/03/22 04:58:08;;;;;;;13.97;4.07;;;;;;;;;;5049489;28;20221;-62
2021/03/22 05:00:39;;;;;;;8.77;3.23;;;;;;;;;;5051288;28;20205;-63
2021/03/22 05:03:06;;;;;;;10.20;3.73;;;;;;;;;;5051238;28;20205;-62
2021/03/22 05:05:33;;;;;;;8.63;3.27;;;;;;;;;;5050858;28;20259;-64
2021/03/22 05:07:59;;;;;;;7.90;3.17;;;;;;;;;;5050818;28;20181;-62
2021/03/22 05:10:30;;;;;;;7.10;3.30;;;;;;;;;;5051008;28;20624;-63
2021/03/22 05:12:59;;;;;;;8.53;3.60;;;;;;;;;;5051066;28;20252;-62
2021/03/22 05:15:25;;;;;;;8.17;3.47;;;;;;;;;;5032824;28;20185;-64
2021/03/22 05:17:51;;;;;;;10.17;3.90;;;;;;;;;;5033141;28;20188;-63
2021/03/22 05:20:23;;;;;;;11.87;4.60;;;;;;;;;;5038402;28;20877;-61
2021/03/22 05:22:49;;;;;;;6.67;3.27;;;;;;;;;;5041194;28;20201;-63
2021/03/22 05:25:16;;;;;;;8.97;3.80;;;;;;;;;;5046087;28;20439;-64
2021/03/22 05:27:42;;;;;;;10.00;4.10;;;;;;;;;;5037383;28;20656;-62
2021/03/22 05:30:09;;;;;;;13.17;4.37;;;;;;;;;;5053137;28;20177;-62
2021/03/22 05:32:36;;;;;;;9.33;3.97;;;;;;;;;;5060169;28;20662;-61
2021/03/22 05:35:03;;;;;;;9.53;4.23;;;;;;;;;;5040762;28;20193;-62
2021/03/22 05:37:29;;;;;;;11.07;4.40;;;;;;;;;;5034392;28;20542;-61
2021/03/22 05:39:55;;;;;;;9.57;4.80;;;;;;;;;;5032594;28;20545;-62
2021/03/22 05:42:34;;;;;;;11.43;4.67;;;;;;;;;;5048922;28;20216;-62
2021/03/22 05:45:25;;;;;;;10.23;4.70;;;;;;;;;;5047087;28;20173;-64
2021/03/22 05:47:55;;;;;;;9.43;4.80;;;;;;;;;;5019227;28;20185;-62
2021/03/22 05:50:26;;;;;;;11.40;5.17;;;;;;;;;;5022375;28;20197;-61
2021/03/22 05:52:58;;;;;;;11.23;5.93;;;;;;;;;;5024157;28;20431;-61
2021/03/22 05:55:28;;;;;;;11.20;5.90;;;;;;;;;;5049588;28;20476;-62
2021/03/22 05:58:02;;;;;;;14.40;5.80;;;;;;;;;;5022619;28;20231;-62
2021/03/22 06:00:28;;;;;;;12.57;5.03;;;;;;;;;;5049137;28;20411;-62
2021/03/22 06:03:04;;;;;;;17.33;6.10;;;;;;;;;;5045446;28;20466;-62
2021/03/22 06:05:48;;;;;;;12.90;5.60;;;;;;;;;;5022986;28;20553;-62
2021/03/22 06:08:33;;;;;;;11.70;5.50;;;;;;;;;;5049267;28;20419;-62
2021/03/22 06:11:00;;;;;;;14.77;6.33;;;;;;;;;;5042075;28;20174;-62
2021/03/22 06:13:29;;;;;;;14.83;5.57;;;;;;;;;;5038864;28;20180;-62
2021/03/22 06:15:58;;;;;;;17.77;6.33;;;;;;;;;;5029860;28;20836;-63
2021/03/22 06:18:35;;;;;;;13.40;5.57;;;;;;;;;;5039111;28;20447;-62
2021/03/22 06:21:03;;;;;;;13.37;7.43;;;;;;;;;;5048905;28;20524;-62
2021/03/22 06:23:41;;;;;;;14.23;6.43;;;;;;;;;;5049316;28;20424;-62
2021/03/22 06:26:19;;;;;;;14.00;6.40;;;;;;;;;;5049411;28;20534;-62
2021/03/22 06:28:49;;;;;;;13.07;6.73;;;;;;;;;;5049618;28;20184;-61
2021/03/22 06:31:18;;;;;;;12.50;6.27;;;;;;;;;;5049620;28;20469;-62
2021/03/22 06:33:46;;;;;;;13.20;6.13;;;;;;;;;;5046704;28;20666;-62
2021/03/22 06:36:16;;;;;;;14.77;5.77;;;;;;;;;;5029652;28;20467;-61
2021/03/22 06:38:45;;;;;;;10.70;6.03;;;;;;;;;;5042453;28;20558;-61
2021/03/22 06:41:30;;;;;;;13.90;6.83;;;;;;;;;;5042311;28;20467;-63
2021/03/22 06:43:56;;;;;;;16.93;6.30;;;;;;;;;;5049021;28;20839;-62
2021/03/22 06:46:24;;;;;;;14.03;6.63;;;;;;;;;;5049299;28;20173;-62
2021/03/22 06:48:57;;;;;;;12.87;5.40;;;;;;;;;;5048054;28;20435;-61
2021/03/22 06:51:23;;;;;;;14.13;6.03;;;;;;;;;;5042733;28;20182;-61
2021/03/22 06:53:51;;;;;;;16.60;5.17;;;;;;;;;;5047240;28;20264;-62
2021/03/22 06:56:27;;;;;;;10.83;5.63;;;;;;;;;;5048917;28;20177;-62
2021/03/22 06:59:09;;;;;;;12.77;5.80;;;;;;;;;;5049532;28;20831;-63
2021/03/22 07:01:35;;;;;;;9.60;5.43;;;;;;;;;;5048723;28;20458;-62
2021/03/22 07:04:20;;;;;;;10.87;5.57;;;;;;;;;;5047426;28;20542;-62
2021/03/22 07:07:04;;;;;;;12.00;5.90;;;;;;;;;;5029425;28;20461;-63
2021/03/22 07:09:35;;;;;;;14.63;5.57;;;;;;;;;;5020054;28;20431;-62
2021/03/22 07:12:01;;;;;;;9.27;5.00;;;;;;;;;;5048210;28;20185;-64
2021/03/22 07:14:30;;;;;;;10.97;6.20;;;;;;;;;;5063576;28;20526;-62
2021/03/22 07:17:06;;;;;;;13.80;6.37;;;;;;;;;;5028746;28;20656;-64
2021/03/22 07:19:33;;;;;;;12.67;6.17;;;;;;;;;;5028868;28;20182;-61
2021/03/22 07:22:04;;;;;;;8.27;5.27;;;;;;;;;;5029806;28;20454;-61
2021/03/22 07:24:30;;;;;;;11.73;5.90;;;;;;;;;;5036581;28;20411;-61
2021/03/22 07:27:00;;;;;;;8.90;5.40;;;;;;;;;;5043505;28;20170;-62
2021/03/22 07:29:45;;;;;;;11.73;5.37;;;;;;;;;;5047847;28;20521;-64
2021/03/22 07:32:35;;;;;;;12.70;6.50;;;;;;;;;;5035188;28;20841;-64
2021/03/22 07:35:01;;;;;;;10.30;5.37;;;;;;;;;;5049673;28;20410;-64
2021/03/22 07:37:51;;;;;;;13.57;6.13;;;;;;;;;;5068652;28;20445;-61
2021/03/22 07:40:22;;;;;;;8.43;4.90;;;;;;;;;;5051417;28;20469;-62
2021/03/22 07:42:57;;;;;;;11.60;5.07;;;;;;;;;;5032769;28;20469;-62
2021/03/22 07:45:30;;;;;;;8.97;4.90;;;;;;;;;;5027506;28;20514;-62
2021/03/22 07:48:15;;;;;;;8.50;4.80;;;;;;;;;;5026812;28;20454;-62
2021/03/22 07:50:57;;;;;;;8.70;4.97;;;;;;;;;;5052045;28;20777;-62
2021/03/22 07:53:26;;;;;;;13.43;5.30;;;;;;;;;;5049818;28;20560;-62
2021/03/22 07:55:53;;;;;;;6.77;4.30;;;;;;;;;;5033209;28;20420;-62
2021/03/22 07:58:38;;;;;;;7.90;4.67;;;;;;;;;;5049546;28;20492;-65
2021/03/22 08:01:23;;;;;;;6.40;3.97;;;;;;;;;;5051714;28;20169;-62
2021/03/22 08:04:00;;;;;;;8.23;4.47;;;;;;;;;;5051659;28;20404;-66
2021/03/22 08:06:32;;;;;;;8.20;4.53;;;;;;;;;;5052536;28;20715;-62
2021/03/22 08:08:58;;;;;;;6.43;4.50;;;;;;;;;;5051206;28;20830;-62
2021/03/22 08:11:34;;;;;;;9.07;4.80;;;;;;;;;;5016662;28;20420;-63
2021/03/22 08:14:08;;;;;;;9.93;5.17;;;;;;;;;;5025669;28;20204;-62
2021/03/22 08:16:53;;;;;;;8.47;4.87;;;;;;;;;;5015147;28;20415;-61
2021/03/22 08:19:23;;;;;;;7.80;4.40;;;;;;;;;;5047231;28;20423;-62
2021/03/22 08:21:54;;;;;;;7.47;4.50;;;;;;;;;;5040230;28;20550;-62
2021/03/22 08:24:27;;;;;;;9.20;4.80;;;;;;;;;;5025394;28;20477;-62
2021/03/22 08:27:02;;;;;;;10.20;4.60;;;;;;;;;;5030855;28;20385;-62
2021/03/22 08:29:30;;;;;;;7.57;4.43;;;;;;;;;;5052560;28;20176;-62
2021/03/22 08:32:13;;;;;;;9.10;4.87;;;;;;;;;;5049998;28;20813;-61
2021/03/22 08:34:46;;;;;;;7.80;4.90;;;;;;;;;;5002378;28;20481;-62
2021/03/22 08:37:18;;;;;;;12.00;5.20;;;;;;;;;;5020216;28;20466;-61
2021/03/22 08:40:00;;;;;;;9.30;5.23;;;;;;;;;;5050782;28;20295;-63
2021/03/22 08:42:42;;;;;;;6.70;4.23;;;;;;;;;;5043620;28;20601;-62
2021/03/22 08:45:27;;;;;;;7.53;4.50;;;;;;;;;;5032677;28;20408;-62
2021/03/22 08:48:00;;;;;;;7.90;4.53;;;;;;;;;;5031809;28;20419;-59
2021/03/22 08:50:28;;;;;;;5.37;4.83;;;;;;;;;;5051127;28;20507;-59
2021/03/22 08:52:54;;;;;;;6.50;4.60;;;;;;;;;;5046665;28;20901;-59
2021/03/22 08:55:21;;;;;;;8.53;4.53;;;;;;;;;;5038099;28;20420;-58
2021/03/22 08:58:07;;;;;;;5.97;3.70;;;;;;;;;;5050101;28;20412;-59
2021/03/22 09:00:37;;;;;;;8.00;3.37;;;;;;;;;;5051210;28;20236;-59
2021/03/22 09:03:05;;;;;;;6.63;3.83;;;;;;;;;;5049561;28;20505;-59
2021/03/22 09:05:33;;;;;;;5.70;3.83;;;;;;;;;;5032850;28;20177;-58
2021/03/22 09:08:15;;;;;;;8.03;4.20;;;;;;;;;;5045248;28;20554;-59
2021/03/22 09:10:41;;;;;;;7.30;3.90;;;;;;;;;;5040674;28;20632;-58
2021/03/22 09:13:17;;;;;;;6.60;3.37;;;;;;;;;;5031321;28;20181;-59
2021/03/22 09:15:57;;;;;;;5.47;3.03;;;;;;;;;;5032574;28;20203;-59
2021/03/22 09:18:23;;;;;;;4.70;2.87;;;;;;;;;;5048464;28;20238;-58
2021/03/22 09:20:49;;;;;;;3.70;2.70;;;;;;;;;;5050826;28;20176;-58
2021/03/22 09:23:39;;;;;;;6.93;2.93;;;;;;;;;;5042495;28;20205;-58
2021/03/22 09:26:07;;;;;;;5.97;2.87;;;;;;;;;;5018108;28;20657;-58
2021/03/22 09:29:00;;;;;;;5.07;2.95;;;;;;;;;;5041163;28;20993;-58
2021/03/22 09:31:29;;;;;;;4.47;2.60;;;;;;;;;;5046584;28;20268;-58
2021/03/22 09:33:55;;;;;;;3.70;2.97;;;;;;;;;;5049474;28;20185;-57
2021/03/22 09:36:38;;;;;;;7.17;3.33;;;;;;;;;;5039195;28;20190;-57
2021/03/22 09:39:27;;;;;;;5.50;3.20;;;;;;;;;;5046287;28;20299;-58
2021/03/22 09:42:02;;;;;;;5.17;2.80;;;;;;;;;;5031092;28;20213;-58
2021/03/22 09:44:30;;;;;;;5.07;2.87;;;;;;;;;;5034875;28;20208;-57
2021/03/22 09:47:05;;;;;;;3.30;2.60;;;;;;;;;;5030064;28;20574;-56
2021/03/22 09:49:33;;;;;;;4.03;2.53;;;;;;;;;;5043515;28;20242;-57
2021/03/22 09:52:14;;;;;;;3.53;2.00;;;;;;;;;;5037216;28;20179;-58
2021/03/22 09:54:42;;;;;;;5.50;2.13;;;;;;;;;;5047167;28;20620;-58
2021/03/22 09:57:22;;;;;;;5.03;2.30;;;;;;;;;;5049191;28;20537;-58
2021/03/22 10:00:06;;;;;;;3.97;2.07;;;;;;;;;;5031818;28;20188;-58
2021/03/22 10:02:38;;;;;;;3.13;1.43;;;;;;;;;;5032403;28;20189;-58
2021/03/22 10:05:04;;;;;;;4.27;1.63;;;;;;;;;;5055559;28;20184;-58
2021/03/22 10:07:31;;;;;;;3.87;1.97;;;;;;;;;;5061378;28;20252;-58
2021/03/22 10:10:17;;;;;;;4.73;2.00;;;;;;;;;;5031289;28;20573;-57
2021/03/22 10:12:47;;;;;;;2.93;1.77;;;;;;;;;;5039154;28;20173;-59
2021/03/22 10:15:14;;;;;;;4.87;1.73;;;;;;;;;;5049726;28;20184;-58
2021/03/22 10:17:58;;;;;;;1.77;1.43;;;;;;;;;;5049491;28;20173;-58
2021/03/22 10:20:36;;;;;;;3.03;2.00;;;;;;;;;;5049964;28;20173;-58
2021/03/22 10:23:04;;;;;;;3.73;1.80;;;;;;;;;;5026270;28;20221;-58
2021/03/22 10:25:32;;;;;;;2.10;1.50;;;;;;;;;;5045621;28;20631;-58
2021/03/22 10:28:04;;;;;;;3.20;1.77;;;;;;;;;;5047054;28;20177;-60
2021/03/22 10:30:30;;;;;;;3.37;1.40;;;;;;;;;;5031933;28;20230;-58
2021/03/22 10:33:12;;;;;;;1.93;1.57;;;;;;;;;;5044729;28;20632;-58
2021/03/22 10:36:04;;;;;;;3.23;1.60;;;;;;;;;;5029602;28;20170;-58
2021/03/22 10:38:32;;;;;;;3.73;1.57;;;;;;;;;;5036305;28;20683;-58
2021/03/22 10:40:59;;;;;;;2.60;1.70;;;;;;;;;;5048737;28;20180;-60
2021/03/22 10:43:29;;;;;;;1.40;1.30;;;;;;;;;;5048749;28;20177;-60
2021/03/22 10:45:55;;;;;;;2.83;1.70;;;;;;;;;;5061789;28;20187;-58
2021/03/22 10:48:24;;;;;;;3.87;2.20;;;;;;;;;;5057844;28;20248;-59
2021/03/22 10:51:01;;;;;;;2.63;2.20;;;;;;;;;;5048972;28;20193;-59
2021/03/22 10:53:27;;;;;;;3.70;1.90;;;;;;;;;;5041319;28;20671;-58
2021/03/22 10:55:53;;;;;;;2.17;1.90;;;;;;;;;;5028845;28;20719;-58
2021/03/22 10:58:19;;;;;;;2.03;1.83;;;;;;;;;;5049865;28;20220;-58
2021/03/22 11:00:46;;;;;;;2.70;1.77;;;;;;;;;;5069726;28;20287;-58
2021/03/22 11:03:24;;;;;;;3.43;1.73;;;;;;;;;;5054549;28;20208;-58
2021/03/22 11:05:50;;;;;;;2.90;1.90;;;;;;;;;;5052039;28;20296;-59
2021/03/22 11:08:37;;;;;;;1.37;1.27;;;;;;;;;;5052791;28;20705;-59
2021/03/22 11:11:08;;;;;;;2.30;1.57;;;;;;;;;;5048653;28;20188;-58
2021/03/22 11:13:35;;;;;;;1.83;1.63;;;;;;;;;;5057544;28;20209;-59
2021/03/22 11:16:04;;;;;;;2.33;2.00;;;;;;;;;;5053352;28;20177;-58
2021/03/22 11:18:34;;;;;;;3.10;1.97;;;;;;;;;;5052508;28;20173;-59
2021/03/22 11:21:01;;;;;;;2.83;2.43;;;;;;;;;;5052775;28;20184;-59
2021/03/22 11:23:44;;;;;;;5.77;2.07;;;;;;;;;;5051726;28;20191;-59
2021/03/22 11:26:12;;;;;;;2.20;1.50;;;;;;;;;;5047705;28;20722;-59
2021/03/22 11:28:38;;;;;;;2.80;1.73;;;;;;;;;;5027644;28;20185;-59
2021/03/22 11:31:06;;;;;;;3.37;1.90;;;;;;;;;;5053135;28;20169;-59
2021/03/22 11:33:43;;;;;;;2.20;1.30;;;;;;;;;;5052355;28;20185;-58
2021/03/22 11:36:13;;;;;;;3.30;1.70;;;;;;;;;;5035032;28;20226;-59
2021/03/22 11:38:50;;;;;;;4.80;2.47;;;;;;;;;;5028916;28;20737;-58
2021/03/22 11:41:36;;;;;;;4.97;2.00;;;;;;;;;;5019415;28;20198;-60
2021/03/22 11:44:15;;;;;;;4.97;2.00;;;;;;;;;;5027063;28;20181;-59
2021/03/22 11:46:42;;;;;;;3.03;1.83;;;;;;;;;;5045334;28;20178;-59
2021/03/22 11:49:26;;;;;;;3.60;1.53;;;;;;;;;;5037216;28;20205;-60
2021/03/22 11:51:52;;;;;;;2.93;1.80;;;;;;;;;;5032089;28;20542;-59
2021/03/22 11:54:19;;;;;;;3.37;1.50;;;;;;;;;;5034103;28;20270;-58
2021/03/22 11:56:55;;;;;;;3.83;1.70;;;;;;;;;;5031750;28;20185;-60
2021/03/22 11:59:22;;;;;;;3.90;2.10;;;;;;;;;;5050559;28;20180;-58
2021/03/22 12:02:01;;;;;;;1.73;1.40;;;;;;;;;;5052468;28;20225;-59
2021/03/22 12:04:27;;;;;;;2.00;1.70;;;;;;;;;;5051796;28;20588;-58
2021/03/22 12:07:01;;;;;;;5.83;2.10;;;;;;;;;;5033647;28;20169;-59
2021/03/22 12:09:28;;;;;;;2.77;1.53;;;;;;;;;;5051786;28;20175;-58
2021/03/22 12:11:55;;;;;;;5.77;2.13;;;;;;;;;;5028758;28;20185;-60
2021/03/22 12:14:22;;;;;;;9.77;2.47;;;;;;;;;;5031567;28;20246;-58
2021/03/22 12:16:48;;;;;;;3.00;1.60;;;;;;;;;;5031297;28;20671;-58
2021/03/22 12:19:22;;;;;;;5.23;1.77;;;;;;;;;;5049175;28;20547;-61
2021/03/22 12:21:49;;;;;;;5.77;1.90;;;;;;;;;;5042629;28;20256;-58
2021/03/22 12:24:16;;;;;;;3.17;2.00;;;;;;;;;;5020982;28;20187;-59
2021/03/22 12:26:42;;;;;;;2.70;1.83;;;;;;;;;;5011406;28;20206;-58
2021/03/22 12:29:08;;;;;;;1.57;1.40;;;;;;;;;;5027295;28;20189;-59
2021/03/22 12:31:38;;;;;;;1.50;1.23;;;;;;;;;;5051775;28;20169;-58
2021/03/22 12:34:05;;;;;;;4.23;1.80;;;;;;;;;;5050593;28;20177;-58
2021/03/22 12:36:34;;;;;;;3.37;1.73;;;;;;;;;;5041832;28;20197;-59
2021/03/22 12:39:00;;;;;;;4.70;1.83;;;;;;;;;;5052188;28;20706;-59
2021/03/22 12:41:31;;;;;;;5.67;1.97;;;;;;;;;;5070671;28;20593;-60
2021/03/22 12:43:58;;;;;;;4.00;2.13;;;;;;;;;;5055596;28;20204;-61
2021/03/22 12:46:24;;;;;;;3.87;1.80;;;;;;;;;;5049879;28;20192;-61
2021/03/22 12:48:50;;;;;;;6.13;2.03;;;;;;;;;;5045146;28;20184;-60
2021/03/22 12:51:16;;;;;;;6.13;1.80;;;;;;;;;;5038365;28;20246;-60
2021/03/22 12:53:43;;;;;;;4.53;2.07;;;;;;;;;;5026504;28;20191;-59
2021/03/22 12:56:10;;;;;;;4.47;1.77;;;;;;;;;;5029902;28;20655;-60
2021/03/22 12:58:37;;;;;;;2.17;1.83;;;;;;;;;;5038539;28;20186;-60
2021/03/22 13:01:04;;;;;;;5.17;1.70;;;;;;;;;;5032314;28;20182;-59
2021/03/22 13:03:30;;;;;;;4.93;1.97;;;;;;;;;;5025213;28;20189;-60
2021/03/22 13:05:56;;;;;;;3.57;1.80;;;;;;;;;;5026449;28;20170;-60
2021/03/22 13:08:24;;;;;;;2.20;1.63;;;;;;;;;;5025759;28;20185;-59
2021/03/22 13:10:50;;;;;;;2.83;1.77;;;;;;;;;;5048857;28;20173;-59
2021/03/22 13:13:16;;;;;;;4.13;1.43;;;;;;;;;;5047916;28;20192;-60
2021/03/22 13:15:44;;;;;;;1.90;1.70;;;;;;;;;;5042205;28;20182;-60
2021/03/22 13:18:30;;;;;;;3.17;1.83;;;;;;;;;;5042930;28;20496;-60
2021/03/22 13:21:11;;;;;;;2.93;1.70;;;;;;;;;;5033226;28;20181;-60
2021/03/22 13:23:37;;;;;;;4.80;2.20;;;;;;;;;;5048949;28;20177;-59
2021/03/22 13:26:04;;;;;;;3.40;1.97;;;;;;;;;;5048455;28;20243;-58
2021/03/22 13:28:32;;;;;;;3.57;2.20;;;;;;;;;;5048985;28;20189;-59
2021/03/22 13:30:58;;;;;;;5.40;2.23;;;;;;;;;;5046757;28;20514;-60
2021/03/22 13:33:26;;;;;;;3.80;2.30;;;;;;;;;;5048606;28;20271;-59
2021/03/22 13:35:52;;;;;;;6.53;2.20;;;;;;;;;;5023451;28;20196;-59
2021/03/22 13:38:39;;;;;;;2.53;1.50;;;;;;;;;;5023893;28;20299;-59
2021/03/22 13:41:16;;;;;;;3.80;1.93;;;;;;;;;;5026151;28;20203;-60
2021/03/22 13:43:42;;;;;;;4.13;1.90;;;;;;;;;;5028030;28;20612;-60
2021/03/22 13:46:08;;;;;;;5.57;2.00;;;;;;;;;;5050109;28;20200;-60
2021/03/22 13:48:34;;;;;;;5.77;2.10;;;;;;;;;;5028183;28;20221;-60
2021/03/22 13:51:00;;;;;;;4.50;1.93;;;;;;;;;;5012601;28;20549;-60
2021/03/22 13:53:27;;;;;;;6.63;2.40;;;;;;;;;;5052371;28;20180;-60
2021/03/22 13:55:53;;;;;;;5.40;2.03;;;;;;;;;;5069876;28;20168;-60
2021/03/22 13:58:20;;;;;;;3.60;1.87;;;;;;;;;;5057209;28;20219;-60
2021/03/22 14:00:48;;;;;;;4.23;1.93;;;;;;;;;;5049861;28;20181;-60
2021/03/22 14:03:14;;;;;;;5.07;2.27;;;;;;;;;;5049343;28;20655;-60
2021/03/22 14:05:40;;;;;;;4.07;2.17;;;;;;;;;;5047627;28;20173;-60
2021/03/22 14:08:06;;;;;;;4.40;1.93;;;;;;;;;;5054378;28;20543;-62
2021/03/22 14:10:32;;;;;;;4.67;2.43;;;;;;;;;;5047709;28;20200;-60
2021/03/22 14:12:58;;;;;;;4.80;2.30;;;;;;;;;;5049344;28;20691;-61
2021/03/22 14:15:29;;;;;;;2.37;1.83;;;;;;;;;;5049786;28;20308;-60
2021/03/22 14:17:56;;;;;;;5.00;1.70;;;;;;;;;;5036165;28;20184;-60
2021/03/22 14:20:22;;;;;;;4.57;1.67;;;;;;;;;;5049042;28;20619;-60
2021/03/22 14:22:48;;;;;;;4.13;1.83;;;;;;;;;;5048540;28;20205;-61
2021/03/22 14:25:15;;;;;;;3.67;2.30;;;;;;;;;;5049306;28;20169;-60
2021/03/22 14:27:41;;;;;;;2.10;1.60;;;;;;;;;;5049528;28;20765;-60
2021/03/22 14:30:09;;;;;;;5.80;2.73;;;;;;;;;;5049804;28;20212;-61
2021/03/22 14:32:35;;;;;;;4.63;2.30;;;;;;;;;;5049437;28;20185;-61
2021/03/22 14:35:01;;;;;;;2.53;2.03;;;;;;;;;;5048556;28;20504;-61
2021/03/22 14:37:27;;;;;;;2.40;2.20;;;;;;;;;;5048101;28;20299;-61
2021/03/22 14:39:53;;;;;;;3.40;2.20;;;;;;;;;;5040981;28;20633;-62
2021/03/22 14:42:20;;;;;;;3.20;1.90;;;;;;;;;;5030933;28;20232;-61
2021/03/22 14:44:46;;;;;;;4.33;2.40;;;;;;;;;;5049673;28;20252;-61
2021/03/22 14:47:12;;;;;;;7.23;2.30;;;;;;;;;;5049008;28;20173;-62
2021/03/22 14:49:39;;;;;;;3.97;2.20;;;;;;;;;;5048391;28;20193;-63
2021/03/22 14:52:05;;;;;;;2.90;2.20;;;;;;;;;;5049271;28;20180;-61
2021/03/22 14:54:31;;;;;;;3.30;1.80;;;;;;;;;;5034522;28;20188;-60
2021/03/22 14:56:57;;;;;;;3.27;1.93;;;;;;;;;;5031945;28;20268;-61